M I D A S
Marine Information and Data Acquisition System
Tripno 1565 of the Zeeleeuw from 2008-09-12 08:00:00 to 2008-09-12 17:00:00
Back to CruiseResearch ActivitiesStationsMapUnderway DataData graphs

EquipmentUnitsComment
TimeDGPSUTC
LatitudeDGPSDM.mWGS84
LongitudeDGPSDM.mWGS84
HeadingGyrodeg 
SOGDGPSknotsSpeed over ground
COGDGPSdegCourse over ground
DepthEcho soundermeters200 kHz
Missing or incorrect values are displayed as -999
Navigation data collected by the RV Zeeleeuw from 2008-09-12 08:00:00 to 2008-09-12 17:00:00
Time Latitude Longitude Heading SOG COG Depth
2008-09-12 08:02:10 51°33.423 2°54.008 319.8 0.9 297 -999
2008-09-12 08:04:10 51°33.441 2°53.97 324 0.9 306 -999
2008-09-12 08:06:10 51°33.45 2°53.938 320.8 0.4 278 -999
2008-09-12 08:08:10 51°33.446 2°53.932 327.5 0.29 172 -999
2008-09-12 08:10:10 51°33.434 2°53.943 350.5 0.5 147 -999
2008-09-12 08:12:10 51°33.417 2°53.962 16.1 0.5 146 -999
2008-09-12 08:14:10 51°33.412 2°53.994 31.1 1.5 57 -999
2008-09-12 08:16:10 51°33.367 2°54.153 118.2 4.09 127 -999
2008-09-12 08:18:10 51°33.298 2°54.306 113 2.89 126 -999
2008-09-12 08:20:10 51°33.234 2°54.404 131.6 2.5 141 -999
2008-09-12 08:22:10 51°33.169 2°54.471 138.4 2.2 146 -999
2008-09-12 08:24:10 51°33.122 2°54.53 134.1 1.6 146 -999
2008-09-12 08:26:10 51°33.083 2°54.564 156.5 1.19 154 -999
2008-09-12 08:28:10 51°33.052 2°54.586 171.1 0.9 157 -999
2008-09-12 08:30:10 51°33.027 2°54.605 184 0.8 152 -999
2008-09-12 08:32:10 51°33.009 2°54.635 182 0.8 130 -999
2008-09-12 08:34:10 51°32.992 2°54.67 168.5 1.19 139 -999
2008-09-12 08:36:10 51°32.966 2°54.792 61.2 2.89 66 -999
2008-09-12 08:38:10 51°33.06 2°54.796 348 3.7 354 -999
2008-09-12 08:40:10 51°33.173 2°54.773 339.8 2.29 344 -999
2008-09-12 08:42:10 51°33.212 2°54.761 333.8 0.8 354 -999
2008-09-12 08:44:10 51°33.227 2°54.768 333.8 0.29 43 -999
2008-09-12 08:46:10 51°33.228 2°54.798 339 0.69 99 -999
2008-09-12 08:48:10 51°33.223 2°54.837 354.1 0.8 102 -999
2008-09-12 08:50:10 51°33.216 2°54.88 4.2 0.9 103 -999
2008-09-12 08:52:10 51°33.208 2°54.925 7.7 0.9 101 -999
2008-09-12 08:54:10 51°33.205 2°54.968 359.6 0.8 93 -999
2008-09-12 08:56:10 51°33.205 2°55.011 355.1 0.69 91 -999
2008-09-12 08:58:10 51°33.232 2°55.019 312.3 1 334 -999
2008-09-12 09:00:10 51°33.269 2°54.965 302.3 1.69 312 -999
2008-09-12 09:02:10 51°33.309 2°54.886 299.6 2 310 -999
2008-09-12 09:04:10 51°33.369 2°54.836 330.3 2 346 -999
2008-09-12 09:06:10 51°33.425 2°54.819 327.1 1.6 348 -999
2008-09-12 09:08:10 51°33.475 2°54.802 323.8 1.5 347 -999
2008-09-12 09:10:10 51°33.528 2°54.808 355.8 1.8 21 -999
2008-09-12 09:12:10 51°33.585 2°54.851 357.1 1.89 21 -999
2008-09-12 09:14:10 51°33.624 2°54.884 342.5 1 37 -999
2008-09-12 09:16:10 51°33.643 2°54.923 339.3 1 63 -999
2008-09-12 09:18:10 51°33.663 2°54.963 338.3 1.5 13 -999
2008-09-12 09:20:10 51°33.582 2°54.735 229.6 9.3 229 -999
2008-09-12 09:22:10 51°33.386 2°54.225 240.5 11.59 241 -999
2008-09-12 09:24:10 51°33.191 2°53.695 240.9 11.59 240 -999
2008-09-12 09:26:10 51°33.009 2°53.143 242.8 11.59 242 -999
2008-09-12 09:28:10 51°32.827 2°52.596 242 11.59 241 -999
2008-09-12 09:30:10 51°32.64 2°52.058 238.6 11.59 239 -999
2008-09-12 09:32:10 51°32.449 2°51.523 241.1 11.59 243 -999
2008-09-12 09:34:10 51°32.258 2°50.988 239.5 11.5 240 -999
2008-09-12 09:36:10 51°32.079 2°50.444 241 11.59 242 -999
2008-09-12 09:38:10 51°31.895 2°49.909 239.1 11.4 238 -999
2008-09-12 09:40:10 51°31.705 2°49.386 236.5 11.5 236 -999
2008-09-12 09:42:10 51°31.493 2°48.878 236.6 11.3 237 -999
2008-09-12 09:44:10 51°31.288 2°48.375 236.9 11.3 240 -999
2008-09-12 09:46:10 51°31.082 2°47.87 235.8 11.3 236 -999
2008-09-12 09:48:10 51°30.881 2°47.357 239.5 11.3 240 -999
2008-09-12 09:50:10 51°30.684 2°46.848 239 11.19 239 -999
2008-09-12 09:52:10 51°30.48 2°46.351 236.5 11.19 236 -999
2008-09-12 09:54:10 51°30.289 2°45.836 239.3 11.3 241 -999
2008-09-12 09:56:10 51°30.086 2°45.334 236 11.19 238 -999
2008-09-12 09:58:10 51°29.889 2°44.825 236.4 11.09 236 -999
2008-09-12 10:00:10 51°29.703 2°44.313 238.8 11.09 238 -999
2008-09-12 10:02:10 51°29.503 2°43.818 236.5 11.09 236 -999
2008-09-12 10:04:10 51°29.315 2°43.309 239 11.09 241 -999
2008-09-12 10:06:10 51°29.122 2°42.803 236.6 11.09 238 -999
2008-09-12 10:08:10 51°28.919 2°42.306 236.4 11.19 237 -999
2008-09-12 10:10:10 51°28.734 2°41.787 239.4 11.19 242 -999
2008-09-12 10:12:10 51°28.563 2°41.256 242.3 11.19 244 -999
2008-09-12 10:14:10 51°28.388 2°40.733 238.5 11.19 239 -999
2008-09-12 10:16:10 51°28.205 2°40.222 239.4 11 240 -999
2008-09-12 10:18:10 51°28.03 2°39.705 240.8 11 243 -999
2008-09-12 10:20:10 51°27.856 2°39.189 240.6 11 244 -999
2008-09-12 10:22:10 51°27.704 2°38.653 243.5 11.09 246 -999
2008-09-12 10:24:10 51°27.539 2°38.129 240.3 11.09 242 -999
2008-09-12 10:26:10 51°27.382 2°37.597 240.3 11 243 -999
2008-09-12 10:28:10 51°27.226 2°37.067 243.3 11 244 -999
2008-09-12 10:30:10 51°27.077 2°36.537 243.1 10.8 246 -999
2008-09-12 10:32:10 51°26.928 2°36.008 244.3 11 244 -999
2008-09-12 10:34:10 51°26.789 2°35.466 246 11 247 -999
2008-09-12 10:36:10 51°26.639 2°34.934 245 11.09 246 -999
2008-09-12 10:38:10 51°26.483 2°34.399 241.4 11 244 -999
2008-09-12 10:40:10 51°26.321 2°33.873 243.3 11 244 -999
2008-09-12 10:42:10 51°26.169 2°33.344 243.3 10.9 243 -999
2008-09-12 10:44:10 51°26.024 2°32.804 245.9 11 248 -999
2008-09-12 10:46:10 51°25.875 2°32.276 242.6 10.9 244 -999
2008-09-12 10:48:10 51°25.728 2°31.738 246.3 11.09 249 -999
2008-09-12 10:50:10 51°25.574 2°31.207 243 10.9 245 -999
2008-09-12 10:52:10 51°25.426 2°30.678 244.3 10.69 245 -999
2008-09-12 10:54:10 51°25.243 2°30.219 215.6 10.59 211 -999
2008-09-12 10:56:10 51°24.97 2°29.852 221.9 10.8 216 -999
2008-09-12 10:58:10 51°24.794 2°29.361 248.9 10.8 253 -999
2008-09-12 11:00:10 51°24.726 2°28.931 260.8 4.4 269 -999
2008-09-12 11:02:10 51°24.733 2°28.785 278.6 1.89 301 -999
2008-09-12 11:04:10 51°24.739 2°28.719 252.8 1 271 -999
2008-09-12 11:06:10 51°24.748 2°28.701 267.5 0.4 2 -999
2008-09-12 11:08:10 51°24.763 2°28.704 274.3 0.4 6 -999
2008-09-12 11:10:10 51°24.778 2°28.723 278.8 0.8 46 -999
2008-09-12 11:12:10 51°24.794 2°28.759 280.5 0.9 55 -999
2008-09-12 11:14:10 51°24.803 2°28.752 253.9 1.89 263 -999
2008-09-12 11:16:10 51°24.768 2°28.643 216.1 1.1 186 -999
2008-09-12 11:18:10 51°24.759 2°28.695 178.8 1.19 67 -999
2008-09-12 11:20:10 51°24.795 2°28.757 171.1 1.39 48 -999
2008-09-12 11:22:10 51°24.792 2°28.807 199.5 1.39 169 -999
2008-09-12 11:24:10 51°24.728 2°28.733 232.1 2.39 239 -999
2008-09-12 11:26:10 51°24.739 2°28.688 270.1 0.59 331 -999
2008-09-12 11:28:10 51°24.757 2°28.701 278.8 0.8 33 -999
2008-09-12 11:30:10 51°24.779 2°28.723 291 0.69 38 -999
2008-09-12 11:32:10 51°24.796 2°28.757 279.6 0.9 53 -999
2008-09-12 11:34:10 51°24.805 2°28.777 250.4 0.59 256 -999
2008-09-12 11:36:10 51°24.754 2°28.749 229.3 1.89 220 -999
2008-09-12 11:38:10 51°24.755 2°28.701 272 0.59 332 -999
2008-09-12 11:40:10 51°24.775 2°28.717 281.1 0.9 32 -999
2008-09-12 11:42:10 51°24.797 2°28.746 287.5 0.9 46 -999
2008-09-12 11:44:10 51°24.815 2°28.755 261.6 0.69 294 -999
2008-09-12 11:46:10 51°24.768 2°28.757 192.5 1.89 178 -999
2008-09-12 11:48:10 51°24.758 2°28.717 257.6 0.69 298 -999
2008-09-12 11:50:10 51°24.775 2°28.71 272.1 0.8 45 -999
2008-09-12 11:52:10 51°24.793 2°28.751 268.3 1 55 -999
2008-09-12 11:54:10 51°24.808 2°28.787 244 0.1 291 -999
2008-09-12 11:56:10 51°24.757 2°28.758 221.6 2.29 217 -999
2008-09-12 11:58:10 51°24.734 2°28.694 252.5 0.8 280 -999
2008-09-12 13:00:10 51°24.937 2°32.136 176 0.9 68 -999
2008-09-12 13:02:10 51°24.952 2°32.183 175 1 63 -999
2008-09-12 13:04:10 51°24.966 2°32.228 175 0.9 62 -999
2008-09-12 13:06:10 51°24.98 2°32.271 179 0.9 56 -999
2008-09-12 13:08:10 51°24.995 2°32.31 180.1 0.8 58 -999
2008-09-12 13:10:10 51°25.008 2°32.344 182.1 0.69 55 -999
2008-09-12 13:12:10 51°25.023 2°32.382 181.8 0.8 52 -999
2008-09-12 13:14:10 51°25.04 2°32.419 187.3 0.8 48 -999
2008-09-12 13:16:10 51°25.058 2°32.451 189.5 0.8 48 -999
2008-09-12 13:18:10 51°25.073 2°32.481 192.1 0.69 48 -999
2008-09-12 13:20:10 51°25.09 2°32.51 197.4 0.69 47 -999
2008-09-12 13:22:10 51°25.109 2°32.536 201 0.69 38 -999
2008-09-12 13:24:10 51°25.129 2°32.563 204.5 0.9 42 -999
2008-09-12 13:26:10 51°25.152 2°32.595 204.5 0.9 39 -999
2008-09-12 13:28:10 51°25.173 2°32.623 205 0.8 34 -999
2008-09-12 13:30:10 51°25.196 2°32.652 201.1 0.9 40 -999
2008-09-12 13:32:10 51°25.205 2°32.66 222.6 0.9 244 -999
2008-09-12 13:34:10 51°25.235 2°32.54 277.1 3.1 288 -999
2008-09-12 13:36:10 51°25.199 2°32.401 232 3.2 237 -999
2008-09-12 13:38:10 51°25.143 2°32.246 231.5 3.39 234 -999
2008-09-12 13:40:10 51°25.052 2°32.166 200.1 2.89 196 -999
2008-09-12 13:42:10 51°25.016 2°32.169 197 0.59 158 -999
2008-09-12 13:44:10 51°25.009 2°32.18 199.5 0.2 100 -999
2008-09-12 13:46:10 51°25.013 2°32.2 195.9 0.4 69 -999
2008-09-12 13:48:10 51°25.022 2°32.22 203.6 0.5 50 -999
2008-09-12 13:50:10 51°25.036 2°32.236 216.5 0.5 32 -999
2008-09-12 13:52:10 51°25.055 2°32.253 230.6 0.69 24 -999
2008-09-12 13:54:10 51°25.08 2°32.271 247.9 0.9 20 -999
2008-09-12 13:56:10 51°25.107 2°32.29 268 0.8 25 -999
2008-09-12 13:58:10 51°25.135 2°32.309 286.8 1 25 -999
2008-09-12 14:00:10 51°25.162 2°32.329 301.8 0.9 26 -999
2008-09-12 14:02:10 51°25.189 2°32.351 314.8 0.9 29 -999
2008-09-12 14:04:10 51°25.215 2°32.372 325.5 0.9 30 -999
2008-09-12 14:06:10 51°25.243 2°32.39 325.8 0.9 25 -999
2008-09-12 14:08:10 51°25.267 2°32.408 321.3 0.69 17 -999
2008-09-12 14:10:10 51°25.291 2°32.425 318.6 0.9 25 -999
2008-09-12 14:12:10 51°25.317 2°32.439 319.3 0.9 11 -999
2008-09-12 14:14:10 51°25.329 2°32.347 248 2.79 259 -999
2008-09-12 14:16:10 51°25.298 2°32.16 246.9 3.89 253 -999
2008-09-12 14:18:10 51°25.271 2°32.041 236.9 1.6 243 -999
2008-09-12 14:20:10 51°25.252 2°32.004 221.3 0.59 215 -999
2008-09-12 14:22:10 51°25.213 2°31.962 217.5 3.1 217 -999
2008-09-12 14:24:10 51°25.119 2°31.85 218.5 2.29 218 -999
2008-09-12 14:26:10 51°25.089 2°31.804 226 0.8 221 -999
2008-09-12 14:28:10 51°25.08 2°31.796 224.8 0.2 171 -999
2008-09-12 14:30:10 51°25.08 2°31.803 225 0.2 62 -999
2008-09-12 14:32:10 51°25.084 2°31.821 213 0.4 62 -999
2008-09-12 14:34:10 51°25.041 2°31.797 207.4 2.2 203 -999
2008-09-12 14:36:10 51°24.993 2°31.766 207.5 1 194 -999
2008-09-12 14:38:10 51°24.972 2°31.766 206.4 0.5 159 -999
2008-09-12 14:40:10 51°24.931 2°31.774 175 2.7 164 -999
2008-09-12 14:42:10 51°24.739 2°32.03 137.8 10.09 136 -999
2008-09-12 14:44:10 51°24.457 2°32.448 137.5 11.8 135 -999
2008-09-12 14:46:10 51°24.25 2°32.991 118.2 12 118 -999
2008-09-12 14:48:10 51°24.045 2°33.546 121.4 12 123 -999
2008-09-12 14:50:10 51°23.841 2°34.086 122.7 12 121 -999
2008-09-12 14:52:10 51°23.612 2°34.59 137 11.59 145 -999
2008-09-12 14:54:10 51°23.234 2°34.767 162.5 11.8 164 -999
2008-09-12 14:56:10 51°22.853 2°34.926 171.1 11.8 174 -999
2008-09-12 14:58:10 51°22.475 2°35.034 161 11.59 159 -999
2008-09-12 15:00:10 51°22.152 2°35.366 135.4 11.69 133 -999
2008-09-12 15:02:10 51°21.936 2°35.891 122.2 11.8 120 -999
2008-09-12 15:04:10 51°21.756 2°36.458 114.5 11.9 114 -999
2008-09-12 15:06:10 51°21.577 2°37.014 117 11.8 118 -999
2008-09-12 15:08:10 51°21.414 2°37.584 111.9 11.69 112 -999
2008-09-12 15:10:10 51°21.26 2°38.16 113.4 11.8 113 -999
2008-09-12 15:12:10 51°21.099 2°38.731 113.5 11.69 114 -999
2008-09-12 15:14:10 51°20.934 2°39.304 113.7 11.8 113 -999
2008-09-12 15:16:10 51°20.769 2°39.872 116.5 11.8 117 -999
2008-09-12 15:18:10 51°20.619 2°40.444 111.2 11.8 112 -999
2008-09-12 15:20:10 51°20.462 2°41.021 112.9 11.9 115 -999
2008-09-12 15:22:10 51°20.311 2°41.593 113.7 11.69 116 -999
2008-09-12 15:24:10 51°20.154 2°42.157 111.5 11.59 113 -999
2008-09-12 15:26:10 51°19.998 2°42.727 113 11.8 112 -999
2008-09-12 15:28:10 51°19.841 2°43.305 111.2 11.9 112 -999
2008-09-12 15:30:10 51°19.69 2°43.885 111.7 11.9 114 -999
2008-09-12 15:32:10 51°19.518 2°44.457 113.2 11.9 118 -999
2008-09-12 15:34:10 51°19.355 2°45.013 111.7 11.5 114 -999
2008-09-12 15:36:10 51°19.115 2°45.479 127.4 11.59 130 -999
2008-09-12 15:38:10 51°18.877 2°45.972 125 11.8 130 -999
2008-09-12 15:40:10 51°18.642 2°46.472 121.7 11.69 125 -999
2008-09-12 15:42:10 51°18.409 2°46.972 122 11.69 124 -999
2008-09-12 15:44:10 51°18.179 2°47.471 123.2 11.5 127 -999
2008-09-12 15:46:10 51°17.947 2°47.957 127 11.4 129 -999
2008-09-12 15:48:10 51°17.696 2°48.41 129 11.5 135 -999
2008-09-12 15:50:10 51°17.427 2°48.848 129.4 11.69 135 -999
2008-09-12 15:52:10 51°17.132 2°49.262 135.9 11.69 140 -999
2008-09-12 15:54:10 51°16.835 2°49.673 134.9 11.69 139 -999
2008-09-12 15:56:10 51°16.543 2°50.096 134 11.69 138 -999
2008-09-12 15:58:10 51°16.266 2°50.525 126.5 11.4 130 -999
2008-09-12 16:00:10 51°16.022 2°51.003 125.5 11.8 131 -999
2008-09-12 16:02:10 51°15.793 2°51.506 118.9 11.59 121 -999
2008-09-12 16:04:10 51°15.564 2°52.006 119.5 11.59 125 -999
2008-09-12 16:06:10 51°15.349 2°52.514 117.5 11.59 120 -999
2008-09-12 16:08:10 51°15.179 2°53.053 113.2 11.3 117 -999
2008-09-12 16:10:10 51°15.015 2°53.596 111.7 11.3 116 -999
2008-09-12 16:12:10 51°14.831 2°54.126 115.4 11.3 120 -999
2008-09-12 16:14:10 51°14.608 2°54.618 123 11.4 125 -999
2008-09-12 16:16:10 51°14.367 2°55.083 129.5 11.4 129 -999
2008-09-12 16:18:10 51°14.091 2°55.443 151.4 9.59 153 -999
2008-09-12 16:20:10 51°13.833 2°55.626 155.3 7 156 -999
2008-09-12 16:22:10 51°13.708 2°55.796 128.5 4.5 131 -999
2008-09-12 16:24:10 51°13.632 2°55.964 122.7 3.1 121 -999
2008-09-12 16:26:10 51°13.602 2°56.077 113 1.39 110 -999